sensor_id;sensor_type;location;lat;lon;timestamp;temperature;humidity
7204;DHT22;3643;52.460;13.322;2022-09-06T00:00:28;16.00;91.40
7204;DHT22;3643;52.460;13.322;2022-09-06T00:02:58;15.90;91.50
7204;DHT22;3643;52.460;13.322;2022-09-06T00:05:27;15.90;91.50
7204;DHT22;3643;52.460;13.322;2022-09-06T00:07:57;15.80;91.40
7204;DHT22;3643;52.460;13.322;2022-09-06T00:10:27;15.60;91.30
7204;DHT22;3643;52.460;13.322;2022-09-06T00:13:00;15.80;91.40
7204;DHT22;3643;52.460;13.322;2022-09-06T00:15:28;15.80;91.40
7204;DHT22;3643;52.460;13.322;2022-09-06T00:17:59;15.70;91.40
7204;DHT22;3643;52.460;13.322;2022-09-06T00:20:29;15.70;91.40
7204;DHT22;3643;52.460;13.322;2022-09-06T00:23:00;15.70;91.30
7204;DHT22;3643;52.460;13.322;2022-09-06T00:25:29;15.70;91.30
7204;DHT22;3643;52.460;13.322;2022-09-06T00:28:00;15.70;91.30
7204;DHT22;3643;52.460;13.322;2022-09-06T00:30:30;15.70;91.30
7204;DHT22;3643;52.460;13.322;2022-09-06T00:33:00;15.70;91.20
7204;DHT22;3643;52.460;13.322;2022-09-06T00:35:28;15.60;91.20
7204;DHT22;3643;52.460;13.322;2022-09-06T00:37:57;15.60;91.10
7204;DHT22;3643;52.460;13.322;2022-09-06T00:40:28;15.60;91.10
7204;DHT22;3643;52.460;13.322;2022-09-06T00:42:57;15.60;91.10
7204;DHT22;3643;52.460;13.322;2022-09-06T00:45:27;15.60;91.00
7204;DHT22;3643;52.460;13.322;2022-09-06T00:47:57;15.60;91.00
7204;DHT22;3643;52.460;13.322;2022-09-06T00:50:27;15.60;91.10
7204;DHT22;3643;52.460;13.322;2022-09-06T00:52:57;15.50;90.90
7204;DHT22;3643;52.460;13.322;2022-09-06T00:55:25;15.50;90.90
7204;DHT22;3643;52.460;13.322;2022-09-06T00:57:55;15.50;90.90
7204;DHT22;3643;52.460;13.322;2022-09-06T01:00:23;15.50;91.00
7204;DHT22;3643;52.460;13.322;2022-09-06T01:02:52;15.40;90.90
7204;DHT22;3643;52.460;13.322;2022-09-06T01:05:25;15.40;91.00
7204;DHT22;3643;52.460;13.322;2022-09-06T01:08:06;15.40;91.00
7204;DHT22;3643;52.460;13.322;2022-09-06T01:10:49;15.30;91.00
7204;DHT22;3643;52.460;13.322;2022-09-06T01:13:30;15.30;91.00
7204;DHT22;3643;52.460;13.322;2022-09-06T01:16:12;15.30;91.30
7204;DHT22;3643;52.460;13.322;2022-09-06T01:18:55;15.20;91.10
7204;DHT22;3643;52.460;13.322;2022-09-06T01:21:37;15.20;91.10
7204;DHT22;3643;52.460;13.322;2022-09-06T01:24:36;15.10;91.10
7204;DHT22;3643;52.460;13.322;2022-09-06T01:30:05;15.00;91.10
7204;DHT22;3643;52.460;13.322;2022-09-06T01:32:40;15.00;91.30
7204;DHT22;3643;52.460;13.322;2022-09-06T01:35:19;15.00;91.10
7204;DHT22;3643;52.460;13.322;2022-09-06T01:37:52;15.00;91.20
7204;DHT22;3643;52.460;13.322;2022-09-06T01:40:21;15.00;91.10
7204;DHT22;3643;52.460;13.322;2022-09-06T01:42:51;14.90;91.10
7204;DHT22;3643;52.460;13.322;2022-09-06T01:45:28;14.90;91.20
7204;DHT22;3643;52.460;13.322;2022-09-06T01:48:07;14.90;91.20
7204;DHT22;3643;52.460;13.322;2022-09-06T01:54:00;14.90;91.30
7204;DHT22;3643;52.460;13.322;2022-09-06T01:56:41;14.80;91.30
7204;DHT22;3643;52.460;13.322;2022-09-06T01:59:29;14.80;91.30
7204;DHT22;3643;52.460;13.322;2022-09-06T02:02:07;14.80;91.30
7204;DHT22;3643;52.460;13.322;2022-09-06T02:04:42;14.80;91.40
7204;DHT22;3643;52.460;13.322;2022-09-06T02:07:17;14.80;91.30
7204;DHT22;3643;52.460;13.322;2022-09-06T02:09:51;14.80;91.40
7204;DHT22;3643;52.460;13.322;2022-09-06T02:12:22;14.80;91.50
7204;DHT22;3643;52.460;13.322;2022-09-06T02:14:56;14.80;91.50
7204;DHT22;3643;52.460;13.322;2022-09-06T02:17:30;14.80;91.50
7204;DHT22;3643;52.460;13.322;2022-09-06T02:20:02;14.70;91.50
7204;DHT22;3643;52.460;13.322;2022-09-06T02:22:35;14.80;91.60
7204;DHT22;3643;52.460;13.322;2022-09-06T02:25:09;14.80;91.60
7204;DHT22;3643;52.460;13.322;2022-09-06T02:27:39;14.80;91.60
7204;DHT22;3643;52.460;13.322;2022-09-06T02:30:08;14.80;91.80
7204;DHT22;3643;52.460;13.322;2022-09-06T02:32:43;14.80;91.50
7204;DHT22;3643;52.460;13.322;2022-09-06T02:35:14;14.80;91.50
7204;DHT22;3643;52.460;13.322;2022-09-06T02:37:43;14.80;91.60
7204;DHT22;3643;52.460;13.322;2022-09-06T02:40:12;14.80;91.60
7204;DHT22;3643;52.460;13.322;2022-09-06T02:42:46;14.70;91.60
7204;DHT22;3643;52.460;13.322;2022-09-06T02:45:15;14.70;91.70
7204;DHT22;3643;52.460;13.322;2022-09-06T02:47:45;14.70;91.80
7204;DHT22;3643;52.460;13.322;2022-09-06T02:50:13;14.70;91.80
7204;DHT22;3643;52.460;13.322;2022-09-06T02:52:42;14.60;91.90
7204;DHT22;3643;52.460;13.322;2022-09-06T02:55:13;14.60;92.00
7204;DHT22;3643;52.460;13.322;2022-09-06T02:57:41;14.60;92.00
7204;DHT22;3643;52.460;13.322;2022-09-06T03:00:11;14.50;92.10
7204;DHT22;3643;52.460;13.322;2022-09-06T03:02:39;14.50;92.20
7204;DHT22;3643;52.460;13.322;2022-09-06T03:05:09;14.50;92.30
7204;DHT22;3643;52.460;13.322;2022-09-06T03:07:38;14.50;92.40
7204;DHT22;3643;52.460;13.322;2022-09-06T03:10:07;14.50;92.50
7204;DHT22;3643;52.460;13.322;2022-09-06T03:12:36;14.50;92.50
7204;DHT22;3643;52.460;13.322;2022-09-06T03:15:05;14.50;92.60
7204;DHT22;3643;52.460;13.322;2022-09-06T03:17:34;14.50;92.70
7204;DHT22;3643;52.460;13.322;2022-09-06T03:20:04;14.40;92.80
7204;DHT22;3643;52.460;13.322;2022-09-06T03:22:34;14.40;92.80
7204;DHT22;3643;52.460;13.322;2022-09-06T03:25:03;14.40;93.00
7204;DHT22;3643;52.460;13.322;2022-09-06T03:27:31;14.40;93.10
7204;DHT22;3643;52.460;13.322;2022-09-06T03:30:00;14.40;93.10
7204;DHT22;3643;52.460;13.322;2022-09-06T03:32:28;14.40;93.30
7204;DHT22;3643;52.460;13.322;2022-09-06T03:34:57;14.30;93.30
7204;DHT22;3643;52.460;13.322;2022-09-06T03:37:25;14.30;93.40
7204;DHT22;3643;52.460;13.322;2022-09-06T03:39:55;14.30;93.50
7204;DHT22;3643;52.460;13.322;2022-09-06T03:42:24;14.30;93.60
7204;DHT22;3643;52.460;13.322;2022-09-06T03:44:53;14.30;93.60
7204;DHT22;3643;52.460;13.322;2022-09-06T03:47:22;14.20;93.80
7204;DHT22;3643;52.460;13.322;2022-09-06T03:49:50;14.20;93.80
7204;DHT22;3643;52.460;13.322;2022-09-06T03:52:18;14.10;93.90
7204;DHT22;3643;52.460;13.322;2022-09-06T03:54:47;14.10;94.00
7204;DHT22;3643;52.460;13.322;2022-09-06T03:57:17;14.10;94.20
7204;DHT22;3643;52.460;13.322;2022-09-06T03:59:45;14.10;94.30
7204;DHT22;3643;52.460;13.322;2022-09-06T04:02:14;14.30;94.40
7204;DHT22;3643;52.460;13.322;2022-09-06T04:04:43;14.00;94.40
7204;DHT22;3643;52.460;13.322;2022-09-06T04:07:11;14.00;94.50
7204;DHT22;3643;52.460;13.322;2022-09-06T04:09:40;14.00;94.50
7204;DHT22;3643;52.460;13.322;2022-09-06T04:12:09;14.00;94.50
7204;DHT22;3643;52.460;13.322;2022-09-06T04:14:39;14.00;94.70
7204;DHT22;3643;52.460;13.322;2022-09-06T04:17:07;13.90;94.70
7204;DHT22;3643;52.460;13.322;2022-09-06T04:19:35;14.00;94.80
7204;DHT22;3643;52.460;13.322;2022-09-06T04:22:04;13.90;94.80
7204;DHT22;3643;52.460;13.322;2022-09-06T04:24:33;13.90;94.90
7204;DHT22;3643;52.460;13.322;2022-09-06T04:27:01;13.90;94.90
7204;DHT22;3643;52.460;13.322;2022-09-06T04:29:30;13.90;94.90
7204;DHT22;3643;52.460;13.322;2022-09-06T04:32:00;13.90;95.10
7204;DHT22;3643;52.460;13.322;2022-09-06T04:34:29;13.90;95.10
7204;DHT22;3643;52.460;13.322;2022-09-06T04:36:57;13.90;95.10
7204;DHT22;3643;52.460;13.322;2022-09-06T04:39:27;13.80;95.10
7204;DHT22;3643;52.460;13.322;2022-09-06T04:41:55;13.90;95.20
7204;DHT22;3643;52.460;13.322;2022-09-06T04:44:23;13.80;95.20
7204;DHT22;3643;52.460;13.322;2022-09-06T04:47:04;13.80;95.30
7204;DHT22;3643;52.460;13.322;2022-09-06T04:49:35;13.80;95.40
7204;DHT22;3643;52.460;13.322;2022-09-06T04:52:04;13.90;95.40
7204;DHT22;3643;52.460;13.322;2022-09-06T04:54:32;13.90;95.40
7204;DHT22;3643;52.460;13.322;2022-09-06T04:57:01;13.90;95.40
7204;DHT22;3643;52.460;13.322;2022-09-06T04:59:29;13.90;95.40
7204;DHT22;3643;52.460;13.322;2022-09-06T05:01:58;13.90;95.40
7204;DHT22;3643;52.460;13.322;2022-09-06T05:04:28;14.00;95.40
7204;DHT22;3643;52.460;13.322;2022-09-06T05:07:01;14.00;95.40
7204;DHT22;3643;52.460;13.322;2022-09-06T05:09:31;14.00;95.40
7204;DHT22;3643;52.460;13.322;2022-09-06T05:12:00;14.10;95.30
7204;DHT22;3643;52.460;13.322;2022-09-06T05:14:29;14.10;95.30
7204;DHT22;3643;52.460;13.322;2022-09-06T05:16:57;14.10;95.40
7204;DHT22;3643;52.460;13.322;2022-09-06T05:19:27;14.20;95.30
7204;DHT22;3643;52.460;13.322;2022-09-06T05:21:56;14.20;95.40
7204;DHT22;3643;52.460;13.322;2022-09-06T05:24:26;14.20;95.40
7204;DHT22;3643;52.460;13.322;2022-09-06T05:26:54;14.20;95.30
7204;DHT22;3643;52.460;13.322;2022-09-06T05:29:23;14.30;95.40
7204;DHT22;3643;52.460;13.322;2022-09-06T05:31:56;14.30;95.30
7204;DHT22;3643;52.460;13.322;2022-09-06T05:34:25;14.40;95.40
7204;DHT22;3643;52.460;13.322;2022-09-06T05:36:55;14.50;95.10
7204;DHT22;3643;52.460;13.322;2022-09-06T05:39:23;14.60;95.10
7204;DHT22;3643;52.460;13.322;2022-09-06T05:41:52;14.70;95.10
7204;DHT22;3643;52.460;13.322;2022-09-06T05:44:21;14.70;94.90
7204;DHT22;3643;52.460;13.322;2022-09-06T05:46:49;14.80;94.80
7204;DHT22;3643;52.460;13.322;2022-09-06T05:49:18;15.10;94.80
7204;DHT22;3643;52.460;13.322;2022-09-06T05:51:49;15.40;94.30
7204;DHT22;3643;52.460;13.322;2022-09-06T05:54:20;15.90;94.00
7204;DHT22;3643;52.460;13.322;2022-09-06T05:56:48;16.70;93.40
7204;DHT22;3643;52.460;13.322;2022-09-06T05:59:17;17.40;92.80
7204;DHT22;3643;52.460;13.322;2022-09-06T06:01:49;17.90;92.40
7204;DHT22;3643;52.460;13.322;2022-09-06T06:04:20;18.50;91.90
7204;DHT22;3643;52.460;13.322;2022-09-06T06:06:49;18.60;91.40
7204;DHT22;3643;52.460;13.322;2022-09-06T06:09:19;18.40;91.40
7204;DHT22;3643;52.460;13.322;2022-09-06T06:11:47;18.00;91.70
7204;DHT22;3643;52.460;13.322;2022-09-06T06:14:15;18.50;91.90
7204;DHT22;3643;52.460;13.322;2022-09-06T06:16:44;18.60;91.50
7204;DHT22;3643;52.460;13.322;2022-09-06T06:19:13;19.30;90.90
7204;DHT22;3643;52.460;13.322;2022-09-06T06:21:41;19.60;90.40
7204;DHT22;3643;52.460;13.322;2022-09-06T06:24:10;19.40;90.30
7204;DHT22;3643;52.460;13.322;2022-09-06T06:26:40;19.40;90.50
7204;DHT22;3643;52.460;13.322;2022-09-06T06:29:08;19.60;90.60
7204;DHT22;3643;52.460;13.322;2022-09-06T06:31:37;19.60;90.20
7204;DHT22;3643;52.460;13.322;2022-09-06T06:34:06;19.80;90.30
7204;DHT22;3643;52.460;13.322;2022-09-06T06:36:36;20.00;89.70
7204;DHT22;3643;52.460;13.322;2022-09-06T06:39:05;20.50;89.60
7204;DHT22;3643;52.460;13.322;2022-09-06T06:41:35;20.90;89.30
7204;DHT22;3643;52.460;13.322;2022-09-06T06:44:05;21.10;88.70
7204;DHT22;3643;52.460;13.322;2022-09-06T06:46:35;21.00;88.20
7204;DHT22;3643;52.460;13.322;2022-09-06T06:49:04;21.20;88.00
7204;DHT22;3643;52.460;13.322;2022-09-06T06:51:34;21.50;87.20
7204;DHT22;3643;52.460;13.322;2022-09-06T06:54:04;21.10;87.90
7204;DHT22;3643;52.460;13.322;2022-09-06T06:56:34;21.40;87.70
7204;DHT22;3643;52.460;13.322;2022-09-06T06:59:05;21.80;87.50
7204;DHT22;3643;52.460;13.322;2022-09-06T07:01:35;22.30;86.40
7204;DHT22;3643;52.460;13.322;2022-09-06T07:04:04;22.30;86.50
7204;DHT22;3643;52.460;13.322;2022-09-06T07:06:46;22.50;86.30
7204;DHT22;3643;52.460;13.322;2022-09-06T07:09:34;22.40;86.50
7204;DHT22;3643;52.460;13.322;2022-09-06T07:12:23;22.30;86.70
7204;DHT22;3643;52.460;13.322;2022-09-06T07:14:53;22.40;86.90
7204;DHT22;3643;52.460;13.322;2022-09-06T07:17:21;22.70;86.40
7204;DHT22;3643;52.460;13.322;2022-09-06T07:19:50;22.90;85.80
7204;DHT22;3643;52.460;13.322;2022-09-06T07:22:39;22.90;85.90
7204;DHT22;3643;52.460;13.322;2022-09-06T07:25:09;23.70;85.60
7204;DHT22;3643;52.460;13.322;2022-09-06T07:27:43;23.70;85.00
7204;DHT22;3643;52.460;13.322;2022-09-06T07:30:19;22.90;85.70
7204;DHT22;3643;52.460;13.322;2022-09-06T07:32:47;23.00;86.60
7204;DHT22;3643;52.460;13.322;2022-09-06T07:35:16;22.80;86.30
7204;DHT22;3643;52.460;13.322;2022-09-06T07:37:53;22.50;87.10
7204;DHT22;3643;52.460;13.322;2022-09-06T07:40:23;22.80;87.00
7204;DHT22;3643;52.460;13.322;2022-09-06T07:42:55;23.00;86.70
7204;DHT22;3643;52.460;13.322;2022-09-06T07:45:25;23.10;86.70
7204;DHT22;3643;52.460;13.322;2022-09-06T07:47:54;22.60;87.00
7204;DHT22;3643;52.460;13.322;2022-09-06T07:50:25;22.10;87.70
7204;DHT22;3643;52.460;13.322;2022-09-06T07:53:14;21.40;88.60
7204;DHT22;3643;52.460;13.322;2022-09-06T07:55:56;20.80;89.90
7204;DHT22;3643;52.460;13.322;2022-09-06T07:58:25;20.70;90.10
7204;DHT22;3643;52.460;13.322;2022-09-06T08:01:13;20.80;90.10
7204;DHT22;3643;52.460;13.322;2022-09-06T08:03:44;20.50;90.30
7204;DHT22;3643;52.460;13.322;2022-09-06T08:06:13;19.80;90.80
7204;DHT22;3643;52.460;13.322;2022-09-06T08:08:42;19.80;91.00
7204;DHT22;3643;52.460;13.322;2022-09-06T08:11:28;19.70;91.10
7204;DHT22;3643;52.460;13.322;2022-09-06T08:13:58;19.60;91.30
7204;DHT22;3643;52.460;13.322;2022-09-06T08:16:29;19.50;91.50
7204;DHT22;3643;52.460;13.322;2022-09-06T08:18:59;19.40;91.70
7204;DHT22;3643;52.460;13.322;2022-09-06T08:21:31;19.50;91.80
7204;DHT22;3643;52.460;13.322;2022-09-06T08:24:02;19.30;91.80
7204;DHT22;3643;52.460;13.322;2022-09-06T08:26:33;19.20;92.10
7204;DHT22;3643;52.460;13.322;2022-09-06T08:29:04;19.10;92.50
7204;DHT22;3643;52.460;13.322;2022-09-06T08:31:36;19.10;92.40
7204;DHT22;3643;52.460;13.322;2022-09-06T08:34:06;19.10;92.40
7204;DHT22;3643;52.460;13.322;2022-09-06T08:36:34;19.10;92.60
7204;DHT22;3643;52.460;13.322;2022-09-06T08:39:04;19.30;92.50
7204;DHT22;3643;52.460;13.322;2022-09-06T08:41:44;19.40;92.40
7204;DHT22;3643;52.460;13.322;2022-09-06T08:44:19;19.30;92.60
7204;DHT22;3643;52.460;13.322;2022-09-06T08:47:13;19.30;92.70
7204;DHT22;3643;52.460;13.322;2022-09-06T08:49:44;19.40;92.70
7204;DHT22;3643;52.460;13.322;2022-09-06T08:52:27;19.40;92.70
7204;DHT22;3643;52.460;13.322;2022-09-06T08:55:13;19.40;92.80
7204;DHT22;3643;52.460;13.322;2022-09-06T08:57:55;19.50;92.80
7204;DHT22;3643;52.460;13.322;2022-09-06T09:00:29;19.40;92.90
7204;DHT22;3643;52.460;13.322;2022-09-06T09:03:05;19.40;92.90
7204;DHT22;3643;52.460;13.322;2022-09-06T09:05:41;19.50;92.90
7204;DHT22;3643;52.460;13.322;2022-09-06T09:08:18;19.70;92.80
7204;DHT22;3643;52.460;13.322;2022-09-06T09:10:53;19.90;92.90
7204;DHT22;3643;52.460;13.322;2022-09-06T09:13:34;20.10;93.00
7204;DHT22;3643;52.460;13.322;2022-09-06T09:16:03;20.30;92.60
7204;DHT22;3643;52.460;13.322;2022-09-06T09:18:36;20.30;92.60
7204;DHT22;3643;52.460;13.322;2022-09-06T09:21:08;20.30;92.70
7204;DHT22;3643;52.460;13.322;2022-09-06T09:23:37;20.30;92.60
7204;DHT22;3643;52.460;13.322;2022-09-06T09:26:09;20.40;92.60
7204;DHT22;3643;52.460;13.322;2022-09-06T09:29:01;20.30;92.60
7204;DHT22;3643;52.460;13.322;2022-09-06T09:31:43;20.10;92.80
7204;DHT22;3643;52.460;13.322;2022-09-06T09:34:30;20.30;92.80
7204;DHT22;3643;52.460;13.322;2022-09-06T09:37:16;20.40;92.70
7204;DHT22;3643;52.460;13.322;2022-09-06T09:40:11;20.40;92.70
7204;DHT22;3643;52.460;13.322;2022-09-06T09:42:43;20.50;92.70
7204;DHT22;3643;52.460;13.322;2022-09-06T09:45:27;20.30;93.30
7204;DHT22;3643;52.460;13.322;2022-09-06T09:47:57;20.30;92.80
7204;DHT22;3643;52.460;13.322;2022-09-06T09:50:44;20.20;93.00
7204;DHT22;3643;52.460;13.322;2022-09-06T09:53:14;20.30;93.10
7204;DHT22;3643;52.460;13.322;2022-09-06T09:55:43;20.40;93.10
7204;DHT22;3643;52.460;13.322;2022-09-06T09:58:24;20.50;92.90
7204;DHT22;3643;52.460;13.322;2022-09-06T10:01:18;20.50;92.90
7204;DHT22;3643;52.460;13.322;2022-09-06T10:03:47;20.60;93.00
7204;DHT22;3643;52.460;13.322;2022-09-06T10:06:39;20.80;92.90
7204;DHT22;3643;52.460;13.322;2022-09-06T10:09:32;20.70;93.00
7204;DHT22;3643;52.460;13.322;2022-09-06T10:12:03;20.60;93.00
7204;DHT22;3643;52.460;13.322;2022-09-06T10:14:39;20.60;93.00
7204;DHT22;3643;52.460;13.322;2022-09-06T10:17:18;20.70;93.10
7204;DHT22;3643;52.460;13.322;2022-09-06T10:19:49;20.90;93.00
7204;DHT22;3643;52.460;13.322;2022-09-06T10:22:30;21.00;92.80
7204;DHT22;3643;52.460;13.322;2022-09-06T10:25:23;21.10;92.80
7204;DHT22;3643;52.460;13.322;2022-09-06T10:28:14;21.00;93.10
7204;DHT22;3643;52.460;13.322;2022-09-06T10:30:57;21.00;93.10
7204;DHT22;3643;52.460;13.322;2022-09-06T10:33:34;21.10;93.10
7204;DHT22;3643;52.460;13.322;2022-09-06T10:36:05;21.20;93.10
7204;DHT22;3643;52.460;13.322;2022-09-06T10:38:44;21.30;93.10
7204;DHT22;3643;52.460;13.322;2022-09-06T10:41:29;21.20;92.90
7204;DHT22;3643;52.460;13.322;2022-09-06T10:44:11;21.10;92.90
7204;DHT22;3643;52.460;13.322;2022-09-06T10:46:42;21.10;93.00
7204;DHT22;3643;52.460;13.322;2022-09-06T10:49:16;21.00;93.10
7204;DHT22;3643;52.460;13.322;2022-09-06T10:51:50;21.10;92.80
7204;DHT22;3643;52.460;13.322;2022-09-06T10:54:25;21.10;92.80
7204;DHT22;3643;52.460;13.322;2022-09-06T10:56:57;21.00;92.70
7204;DHT22;3643;52.460;13.322;2022-09-06T10:59:29;21.00;92.80
7204;DHT22;3643;52.460;13.322;2022-09-06T11:02:13;21.10;92.60
7204;DHT22;3643;52.460;13.322;2022-09-06T11:04:45;21.20;92.80
7204;DHT22;3643;52.460;13.322;2022-09-06T11:07:39;21.30;92.30
7204;DHT22;3643;52.460;13.322;2022-09-06T11:10:33;21.40;92.40
7204;DHT22;3643;52.460;13.322;2022-09-06T11:13:05;21.60;92.30
7204;DHT22;3643;52.460;13.322;2022-09-06T11:15:44;21.60;92.20
7204;DHT22;3643;52.460;13.322;2022-09-06T11:18:16;21.70;92.10
7204;DHT22;3643;52.460;13.322;2022-09-06T11:20:55;21.70;92.10
7204;DHT22;3643;52.460;13.322;2022-09-06T11:23:45;21.70;92.10
7204;DHT22;3643;52.460;13.322;2022-09-06T11:26:34;21.70;92.40
7204;DHT22;3643;52.460;13.322;2022-09-06T11:29:06;21.70;92.30
7204;DHT22;3643;52.460;13.322;2022-09-06T11:31:53;21.60;92.20
7204;DHT22;3643;52.460;13.322;2022-09-06T11:34:52;20.80;92.00
7204;DHT22;3643;52.460;13.322;2022-09-06T11:37:25;21.30;92.50
7204;DHT22;3643;52.460;13.322;2022-09-06T11:40:05;21.30;92.50
7204;DHT22;3643;52.460;13.322;2022-09-06T11:43:15;21.30;92.60
7204;DHT22;3643;52.460;13.322;2022-09-06T11:45:47;21.30;92.50
7204;DHT22;3643;52.460;13.322;2022-09-06T11:48:31;21.30;92.40
7204;DHT22;3643;52.460;13.322;2022-09-06T11:51:05;21.40;92.40
7204;DHT22;3643;52.460;13.322;2022-09-06T11:53:59;21.40;92.50
7204;DHT22;3643;52.460;13.322;2022-09-06T11:56:32;21.30;92.40
7204;DHT22;3643;52.460;13.322;2022-09-06T11:59:10;21.30;92.50
7204;DHT22;3643;52.460;13.322;2022-09-06T12:01:58;21.30;92.40
7204;DHT22;3643;52.460;13.322;2022-09-06T12:07:31;21.50;92.60
7204;DHT22;3643;52.460;13.322;2022-09-06T12:10:02;21.60;92.60
7204;DHT22;3643;52.460;13.322;2022-09-06T12:12:50;21.60;92.50
7204;DHT22;3643;52.460;13.322;2022-09-06T12:15:24;21.60;92.60
7204;DHT22;3643;52.460;13.322;2022-09-06T12:17:53;21.80;92.50
7204;DHT22;3643;52.460;13.322;2022-09-06T12:23:40;22.00;92.50
7204;DHT22;3643;52.460;13.322;2022-09-06T12:26:10;22.10;92.60
7204;DHT22;3643;52.460;13.322;2022-09-06T12:28:45;22.20;92.50
7204;DHT22;3643;52.460;13.322;2022-09-06T12:31:37;22.20;92.30
7204;DHT22;3643;52.460;13.322;2022-09-06T12:34:12;22.30;92.40
7204;DHT22;3643;52.460;13.322;2022-09-06T12:36:54;22.30;92.40
7204;DHT22;3643;52.460;13.322;2022-09-06T12:39:24;22.40;92.40
7204;DHT22;3643;52.460;13.322;2022-09-06T12:41:59;22.50;92.30
7204;DHT22;3643;52.460;13.322;2022-09-06T12:44:31;22.60;92.20
7204;DHT22;3643;52.460;13.322;2022-09-06T12:47:06;22.50;92.00
7204;DHT22;3643;52.460;13.322;2022-09-06T12:49:38;22.70;92.00
7204;DHT22;3643;52.460;13.322;2022-09-06T12:52:09;22.80;92.00
7204;DHT22;3643;52.460;13.322;2022-09-06T12:54:44;22.80;91.90
7204;DHT22;3643;52.460;13.322;2022-09-06T12:57:18;22.70;91.90
7204;DHT22;3643;52.460;13.322;2022-09-06T12:59:50;22.80;91.90
7204;DHT22;3643;52.460;13.322;2022-09-06T13:02:26;23.00;91.80
7204;DHT22;3643;52.460;13.322;2022-09-06T13:05:00;23.20;91.90
7204;DHT22;3643;52.460;13.322;2022-09-06T13:07:34;23.10;91.80
7204;DHT22;3643;52.460;13.322;2022-09-06T13:10:05;23.20;92.00
7204;DHT22;3643;52.460;13.322;2022-09-06T13:12:37;23.50;91.80
7204;DHT22;3643;52.460;13.322;2022-09-06T13:15:09;23.50;91.80
7204;DHT22;3643;52.460;13.322;2022-09-06T13:17:40;23.50;91.60
7204;DHT22;3643;52.460;13.322;2022-09-06T13:20:11;23.40;91.80
7204;DHT22;3643;52.460;13.322;2022-09-06T13:22:43;23.40;91.80
7204;DHT22;3643;52.460;13.322;2022-09-06T13:25:15;23.40;91.90
7204;DHT22;3643;52.460;13.322;2022-09-06T13:27:48;23.40;92.00
7204;DHT22;3643;52.460;13.322;2022-09-06T13:30:36;23.40;92.00
7204;DHT22;3643;52.460;13.322;2022-09-06T13:33:22;23.40;92.10
7204;DHT22;3643;52.460;13.322;2022-09-06T13:36:05;23.50;92.10
7204;DHT22;3643;52.460;13.322;2022-09-06T13:38:40;23.70;92.20
7204;DHT22;3643;52.460;13.322;2022-09-06T13:41:39;23.80;92.20
7204;DHT22;3643;52.460;13.322;2022-09-06T13:44:26;24.00;91.90
7204;DHT22;3643;52.460;13.322;2022-09-06T13:46:56;23.90;92.00
7204;DHT22;3643;52.460;13.322;2022-09-06T13:49:29;23.80;92.00
7204;DHT22;3643;52.460;13.322;2022-09-06T13:51:59;23.80;91.90
7204;DHT22;3643;52.460;13.322;2022-09-06T13:54:28;23.70;91.90
7204;DHT22;3643;52.460;13.322;2022-09-06T13:56:57;23.50;92.20
7204;DHT22;3643;52.460;13.322;2022-09-06T13:59:28;23.60;92.20
7204;DHT22;3643;52.460;13.322;2022-09-06T14:02:01;23.50;92.20
7204;DHT22;3643;52.460;13.322;2022-09-06T14:04:31;23.60;92.30
7204;DHT22;3643;52.460;13.322;2022-09-06T14:07:00;23.70;92.30
7204;DHT22;3643;52.460;13.322;2022-09-06T14:09:30;23.70;92.20
7204;DHT22;3643;52.460;13.322;2022-09-06T14:11:58;23.80;92.40
7204;DHT22;3643;52.460;13.322;2022-09-06T14:14:27;23.70;92.00
7204;DHT22;3643;52.460;13.322;2022-09-06T14:16:55;23.50;92.20
7204;DHT22;3643;52.460;13.322;2022-09-06T14:19:24;23.40;92.20
7204;DHT22;3643;52.460;13.322;2022-09-06T14:21:54;23.50;92.00
7204;DHT22;3643;52.460;13.322;2022-09-06T14:24:23;23.30;92.10
7204;DHT22;3643;52.460;13.322;2022-09-06T14:26:51;23.40;92.40
7204;DHT22;3643;52.460;13.322;2022-09-06T14:29:20;23.60;92.40
7204;DHT22;3643;52.460;13.322;2022-09-06T14:31:52;23.80;92.20
7204;DHT22;3643;52.460;13.322;2022-09-06T14:34:30;24.00;92.00
7204;DHT22;3643;52.460;13.322;2022-09-06T14:37:13;24.00;91.80
7204;DHT22;3643;52.460;13.322;2022-09-06T14:39:52;24.10;91.80
7204;DHT22;3643;52.460;13.322;2022-09-06T14:42:37;23.90;91.80
7204;DHT22;3643;52.460;13.322;2022-09-06T14:45:18;23.60;91.80
7204;DHT22;3643;52.460;13.322;2022-09-06T14:47:50;23.50;92.10
7204;DHT22;3643;52.460;13.322;2022-09-06T14:50:22;23.30;92.00
7204;DHT22;3643;52.460;13.322;2022-09-06T14:53:00;23.10;92.10
7204;DHT22;3643;52.460;13.322;2022-09-06T14:56:02;23.10;92.20
7204;DHT22;3643;52.460;13.322;2022-09-06T14:58:41;23.00;92.40
7204;DHT22;3643;52.460;13.322;2022-09-06T15:01:17;23.10;92.30
7204;DHT22;3643;52.460;13.322;2022-09-06T15:03:48;23.00;92.30
7204;DHT22;3643;52.460;13.322;2022-09-06T15:06:19;23.00;92.30
7204;DHT22;3643;52.460;13.322;2022-09-06T15:08:50;22.90;92.40
7204;DHT22;3643;52.460;13.322;2022-09-06T15:11:29;22.80;92.60
7204;DHT22;3643;52.460;13.322;2022-09-06T15:14:01;22.60;92.70
7204;DHT22;3643;52.460;13.322;2022-09-06T15:16:31;22.60;92.80
7204;DHT22;3643;52.460;13.322;2022-09-06T15:19:01;22.60;92.90
7204;DHT22;3643;52.460;13.322;2022-09-06T15:21:30;22.50;92.80
7204;DHT22;3643;52.460;13.322;2022-09-06T15:24:01;22.50;92.80
7204;DHT22;3643;52.460;13.322;2022-09-06T15:26:37;22.50;92.90
7204;DHT22;3643;52.460;13.322;2022-09-06T15:29:06;22.60;92.90
7204;DHT22;3643;52.460;13.322;2022-09-06T15:31:35;22.50;92.90
7204;DHT22;3643;52.460;13.322;2022-09-06T15:34:04;22.40;92.90
7204;DHT22;3643;52.460;13.322;2022-09-06T15:36:34;22.40;93.00
7204;DHT22;3643;52.460;13.322;2022-09-06T15:39:05;22.40;93.10
7204;DHT22;3643;52.460;13.322;2022-09-06T15:41:35;22.50;93.10
7204;DHT22;3643;52.460;13.322;2022-09-06T15:44:08;22.50;93.10
7204;DHT22;3643;52.460;13.322;2022-09-06T15:46:44;22.50;93.20
7204;DHT22;3643;52.460;13.322;2022-09-06T15:49:16;22.40;93.30
7204;DHT22;3643;52.460;13.322;2022-09-06T15:51:45;22.30;93.30
7204;DHT22;3643;52.460;13.322;2022-09-06T15:54:18;22.30;93.40
7204;DHT22;3643;52.460;13.322;2022-09-06T15:57:07;22.20;93.30
7204;DHT22;3643;52.460;13.322;2022-09-06T15:59:35;22.30;93.50
7204;DHT22;3643;52.460;13.322;2022-09-06T16:02:07;22.20;93.50
7204;DHT22;3643;52.460;13.322;2022-09-06T16:04:39;22.20;93.40
7204;DHT22;3643;52.460;13.322;2022-09-06T16:07:22;22.10;93.50
7204;DHT22;3643;52.460;13.322;2022-09-06T16:09:52;22.10;93.50
7204;DHT22;3643;52.460;13.322;2022-09-06T16:12:21;22.10;93.60
7204;DHT22;3643;52.460;13.322;2022-09-06T16:14:50;22.00;93.60
7204;DHT22;3643;52.460;13.322;2022-09-06T16:17:19;22.00;93.60
7204;DHT22;3643;52.460;13.322;2022-09-06T16:19:48;21.90;93.70
7204;DHT22;3643;52.460;13.322;2022-09-06T16:22:17;21.90;93.70
7204;DHT22;3643;52.460;13.322;2022-09-06T16:24:45;21.90;93.70
7204;DHT22;3643;52.460;13.322;2022-09-06T16:27:15;21.90;93.80
7204;DHT22;3643;52.460;13.322;2022-09-06T16:29:44;21.90;93.80
7204;DHT22;3643;52.460;13.322;2022-09-06T16:32:13;21.80;93.90
7204;DHT22;3643;52.460;13.322;2022-09-06T16:34:43;21.80;93.90
7204;DHT22;3643;52.460;13.322;2022-09-06T16:37:12;21.80;93.90